Private Wetterstation Sandau
Wetterdaten: Donnerstag, 01.11.2012
Datum Zeit Temp. A. Feuchte A. Luftdruck Regen Wind Richtung Richtung Taupunkt Windchill
01.11.2012 00:01 3,3 C 91 % 999,0 hPa 0,0 l/m 9,0 km/h (2 Bft) O-SO 112 2,0 C 0,9 C
01.11.2012 00:06 3,4 C 91 % 998,7 hPa 0,0 l/m 6,1 km/h (2 Bft) SO 135 2,1 C 1,8 C
01.11.2012 00:11 3,4 C 91 % 998,7 hPa 0,0 l/m 5,0 km/h (1 Bft) O 90 2,1 C 2,3 C
01.11.2012 00:16 3,4 C 91 % 998,7 hPa 0,0 l/m 9,4 km/h (2 Bft) O-SO 112 2,1 C 0,9 C
01.11.2012 00:21 3,4 C 91 % 998,7 hPa 0,0 l/m 5,8 km/h (2 Bft) O-SO 112 2,1 C 2,0 C
01.11.2012 00:26 3,3 C 91 % 998,5 hPa 0,0 l/m 12,2 km/h (2 Bft) SO 135 2,0 C 0,2 C
01.11.2012 00:31 3,3 C 91 % 998,5 hPa 0,0 l/m 8,3 km/h (2 Bft) S-SO 157 2,0 C 1,1 C
01.11.2012 00:36 3,3 C 91 % 998,4 hPa 0,0 l/m 4,0 km/h (1 Bft) SO 135 2,0 C 3,3 C
01.11.2012 00:41 3,3 C 91 % 998,3 hPa 0,0 l/m 5,0 km/h (1 Bft) O-SO 112 2,0 C 2,2 C
01.11.2012 00:46 3,3 C 91 % 998,4 hPa 0,0 l/m 10,4 km/h (2 Bft) SO 135 2,0 C 0,5 C
01.11.2012 00:51 3,3 C 91 % 998,3 hPa 0,0 l/m 12,2 km/h (2 Bft) SO 135 2,0 C 0,2 C
01.11.2012 00:56 3,3 C 91 % 998,2 hPa 0,0 l/m 12,6 km/h (3 Bft) S-SO 157 2,0 C 0,1 C
01.11.2012 01:01 3,4 C 91 % 998,2 hPa 0,0 l/m 5,0 km/h (1 Bft) SO 135 2,1 C 2,3 C
01.11.2012 01:06 3,4 C 91 % 998,1 hPa 0,0 l/m 4,7 km/h (1 Bft) O-SO 112 2,1 C 2,4 C
01.11.2012 01:11 3,3 C 91 % 998,0 hPa 0,0 l/m 10,1 km/h (2 Bft) S-SO 157 2,0 C 0,6 C
01.11.2012 01:16 3,4 C 91 % 997,9 hPa 0,0 l/m 4,7 km/h (1 Bft) O 90 2,1 C 2,4 C
01.11.2012 01:21 3,3 C 91 % 997,9 hPa 0,0 l/m 7,6 km/h (2 Bft) O-SO 112 2,0 C 1,3 C
01.11.2012 01:26 3,3 C 91 % 998,0 hPa 0,0 l/m 4,7 km/h (1 Bft) SO 135 2,0 C 2,3 C
01.11.2012 01:31 3,3 C 91 % 998,0 hPa 0,0 l/m 7,6 km/h (2 Bft) O-NO 67 2,0 C 1,3 C
01.11.2012 01:36 3,3 C 91 % 997,9 hPa 0,0 l/m 5,4 km/h (1 Bft) SO 135 2,0 C 2,0 C
01.11.2012 01:41 3,3 C 90 % 997,9 hPa 0,0 l/m 4,0 km/h (1 Bft) O-SO 112 1,8 C 3,3 C
01.11.2012 01:46 3,3 C 90 % 997,6 hPa 0,0 l/m 3,2 km/h (1 Bft) O-SO 112 1,8 C 3,3 C
01.11.2012 01:51 3,2 C 90 % 997,6 hPa 0,0 l/m 11,5 km/h (2 Bft) SO 135 1,7 C 0,2 C
01.11.2012 01:56 3,2 C 90 % 997,7 hPa 0,0 l/m 7,2 km/h (2 Bft) SO 135 1,7 C 1,3 C
01.11.2012 02:01 3,2 C 91 % 997,5 hPa 0,0 l/m 6,1 km/h (2 Bft) SO 135 1,9 C 1,6 C
01.11.2012 02:06 3,2 C 91 % 997,6 hPa 0,0 l/m 2,2 km/h (1 Bft) SO 135 1,9 C 3,2 C
01.11.2012 02:11 3,2 C 91 % 997,6 hPa 0,0 l/m 7,6 km/h (2 Bft) SO 135 1,9 C 1,1 C
01.11.2012 02:16 3,2 C 91 % 997,3 hPa 0,0 l/m 7,9 km/h (2 Bft) SO 135 1,9 C 1,0 C
01.11.2012 02:21 3,2 C 90 % 997,2 hPa 0,0 l/m 6,1 km/h (2 Bft) SO 135 1,7 C 1,6 C
01.11.2012 02:26 3,1 C 90 % 997,1 hPa 0,0 l/m 8,3 km/h (2 Bft) O-SO 112 1,6 C 0,8 C
01.11.2012 02:31 3,1 C 90 % 997,0 hPa 0,0 l/m 8,3 km/h (2 Bft) SO 135 1,6 C 0,8 C
01.11.2012 02:36 3,1 C 90 % 997,0 hPa 0,0 l/m 5,0 km/h (1 Bft) SO 135 1,6 C 1,9 C
01.11.2012 02:41 3,1 C 90 % 996,9 hPa 0,0 l/m 7,2 km/h (2 Bft) SO 135 1,6 C 1,1 C
01.11.2012 02:46 3,1 C 90 % 996,8 hPa 0,0 l/m 9,7 km/h (2 Bft) SO 135 1,6 C 0,5 C
01.11.2012 02:51 3,1 C 90 % 996,7 hPa 0,0 l/m 9,0 km/h (2 Bft) O-SO 112 1,6 C 0,6 C
01.11.2012 02:56 3,0 C 90 % 996,6 hPa 0,0 l/m 6,1 km/h (2 Bft) O-SO 112 1,5 C 1,4 C
01.11.2012 03:01 3,0 C 90 % 996,5 hPa 0,0 l/m 5,4 km/h (1 Bft) SO 135 1,5 C 1,7 C
01.11.2012 03:06 3,0 C 90 % 996,4 hPa 0,0 l/m 5,0 km/h (1 Bft) O 90 1,5 C 1,8 C
01.11.2012 03:11 3,0 C 90 % 996,3 hPa 0,0 l/m 4,3 km/h (1 Bft) O 90 1,5 C 3,0 C
01.11.2012 03:16 3,0 C 90 % 996,4 hPa 0,0 l/m 2,9 km/h (1 Bft) O-SO 112 1,5 C 3,0 C
01.11.2012 03:21 3,0 C 90 % 996,3 hPa 0,0 l/m 13,3 km/h (3 Bft) SO 135 1,5 C -0,4 C
01.11.2012 03:26 3,1 C 90 % 996,0 hPa 0,0 l/m 9,7 km/h (2 Bft) SO 135 1,6 C 0,5 C
01.11.2012 03:31 3,0 C 90 % 996,0 hPa 0,0 l/m 4,0 km/h (1 Bft) O-SO 112 1,5 C 3,0 C
01.11.2012 03:36 3,0 C 90 % 995,9 hPa 0,0 l/m 9,7 km/h (2 Bft) SO 135 1,5 C 0,3 C
01.11.2012 03:41 3,0 C 90 % 995,8 hPa 0,0 l/m 6,1 km/h (2 Bft) SO 135 1,5 C 1,4 C
01.11.2012 03:46 3,0 C 90 % 995,8 hPa 0,0 l/m 5,4 km/h (1 Bft) O-SO 112 1,5 C 1,7 C
01.11.2012 03:51 3,0 C 90 % 995,7 hPa 0,0 l/m 5,8 km/h (2 Bft) SO 135 1,5 C 1,5 C
01.11.2012 03:56 3,0 C 90 % 995,7 hPa 0,0 l/m 4,3 km/h (1 Bft) SO 135 1,5 C 3,0 C
01.11.2012 04:01 2,9 C 90 % 995,7 hPa 0,0 l/m 16,2 km/h (3 Bft) S-SO 157 1,4 C -1,0 C
01.11.2012 04:06 2,9 C 90 % 995,5 hPa 0,0 l/m 4,0 km/h (1 Bft) SO 135 1,4 C 2,9 C
01.11.2012 04:11 2,9 C 90 % 995,5 hPa 0,0 l/m 7,2 km/h (2 Bft) SO 135 1,4 C 0,9 C
01.11.2012 04:16 2,9 C 90 % 995,1 hPa 0,0 l/m 8,3 km/h (2 Bft) SO 135 1,4 C 0,6 C
01.11.2012 04:21 2,9 C 90 % 995,1 hPa 0,0 l/m 3,2 km/h (1 Bft) O-SO 112 1,4 C 2,9 C
01.11.2012 04:26 2,9 C 90 % 995,0 hPa 0,0 l/m 6,1 km/h (2 Bft) O-SO 112 1,4 C 1,3 C
01.11.2012 04:31 2,9 C 90 % 994,7 hPa 0,0 l/m 12,6 km/h (3 Bft) SO 135 1,4 C -0,4 C
01.11.2012 04:36 2,9 C 90 % 994,8 hPa 0,0 l/m 5,4 km/h (1 Bft) O 90 1,4 C 1,5 C
01.11.2012 04:41 2,9 C 90 % 994,5 hPa 0,0 l/m 11,9 km/h (2 Bft) O-SO 112 1,4 C -0,3 C
01.11.2012 04:46 2,9 C 90 % 994,4 hPa 0,0 l/m 6,1 km/h (2 Bft) O 90 1,4 C 1,3 C
01.11.2012 04:51 2,9 C 91 % 994,3 hPa 0,0 l/m 7,2 km/h (2 Bft) SO 135 1,6 C 0,9 C
01.11.2012 04:56 2,9 C 91 % 994,0 hPa 0,0 l/m 13,3 km/h (3 Bft) S-SO 157 1,6 C -0,5 C
01.11.2012 05:01 2,9 C 91 % 994,0 hPa 0,0 l/m 3,6 km/h (1 Bft) O-SO 112 1,6 C 2,9 C
01.11.2012 05:06 2,9 C 91 % 993,8 hPa 0,0 l/m 10,1 km/h (2 Bft) SO 135 1,6 C 0,1 C
01.11.2012 05:11 3,0 C 91 % 993,8 hPa 0,0 l/m 6,8 km/h (2 Bft) O 90 1,7 C 1,1 C
01.11.2012 05:16 3,0 C 91 % 993,7 hPa 0,0 l/m 7,9 km/h (2 Bft) O-SO 112 1,7 C 0,8 C
01.11.2012 05:21 3,0 C 91 % 993,8 hPa 0,0 l/m 8,3 km/h (2 Bft) S-SO 157 1,7 C 0,7 C
01.11.2012 05:26 3,0 C 90 % 993,6 hPa 0,0 l/m 13,3 km/h (3 Bft) O 90 1,5 C -0,4 C
01.11.2012 05:31 2,9 C 90 % 993,7 hPa 0,0 l/m 7,6 km/h (2 Bft) O 90 1,4 C 0,8 C
01.11.2012 05:36 2,9 C 90 % 993,8 hPa 0,0 l/m 8,6 km/h (2 Bft) SO 135 1,4 C 0,5 C
01.11.2012 05:41 2,9 C 90 % 993,6 hPa 0,0 l/m 12,6 km/h (3 Bft) O-SO 112 1,4 C -0,4 C
01.11.2012 05:46 2,8 C 91 % 993,6 hPa 0,0 l/m 9,0 km/h (2 Bft) S-SO 157 1,5 C 0,3 C
01.11.2012 05:51 2,8 C 91 % 993,6 hPa 0,0 l/m 4,7 km/h (1 Bft) SO 135 1,5 C 1,7 C
01.11.2012 05:56 2,8 C 91 % 993,5 hPa 0,0 l/m 8,6 km/h (2 Bft) O-NO 67 1,5 C 0,4 C
01.11.2012 06:01 2,7 C 91 % 993,3 hPa 0,0 l/m 11,5 km/h (2 Bft) O 90 1,4 C -0,4 C
01.11.2012 06:06 2,7 C 91 % 993,3 hPa 0,0 l/m 7,9 km/h (2 Bft) O 90 1,4 C 0,5 C
01.11.2012 06:11 2,8 C 91 % 993,1 hPa 0,0 l/m 10,1 km/h (2 Bft) SO 135 1,5 C 0,0 C
01.11.2012 06:16 2,8 C 91 % 993,1 hPa 0,0 l/m 8,6 km/h (2 Bft) SO 135 1,5 C 0,4 C
01.11.2012 06:21 2,8 C 91 % 993,0 hPa 0,0 l/m 10,1 km/h (2 Bft) O 90 1,5 C 0,0 C
01.11.2012 06:26 2,9 C 91 % 992,9 hPa 0,0 l/m 10,1 km/h (2 Bft) O-SO 112 1,6 C 0,1 C
01.11.2012 06:31 2,9 C 91 % 992,9 hPa 0,0 l/m 11,2 km/h (2 Bft) SO 135 1,6 C -0,1 C
01.11.2012 06:36 2,9 C 91 % 992,7 hPa 0,0 l/m 6,5 km/h (2 Bft) SO 135 1,6 C 1,1 C
01.11.2012 06:41 2,9 C 91 % 992,8 hPa 0,0 l/m 10,1 km/h (2 Bft) SO 135 1,6 C 0,1 C
01.11.2012 06:46 2,9 C 91 % 992,8 hPa 0,0 l/m 6,5 km/h (2 Bft) O-NO 67 1,6 C 1,1 C
01.11.2012 06:51 2,9 C 91 % 992,6 hPa 0,0 l/m 5,4 km/h (1 Bft) SO 135 1,6 C 1,5 C
01.11.2012 06:56 2,9 C 91 % 992,4 hPa 0,0 l/m 9,0 km/h (2 Bft) O-SO 112 1,6 C 0,4 C
01.11.2012 07:01 2,9 C 91 % 992,3 hPa 0,0 l/m 6,1 km/h (2 Bft) SO 135 1,6 C 1,3 C
01.11.2012 07:06 2,9 C 91 % 992,2 hPa 0,0 l/m 8,6 km/h (2 Bft) O-SO 112 1,6 C 0,5 C
01.11.2012 07:11 2,9 C 91 % 992,2 hPa 0,0 l/m 7,6 km/h (2 Bft) SO 135 1,6 C 0,8 C
01.11.2012 07:16 2,9 C 91 % 992,3 hPa 0,0 l/m 14,4 km/h (3 Bft) SO 135 1,6 C -0,7 C
01.11.2012 07:21 3,0 C 91 % 992,2 hPa 0,0 l/m 14,4 km/h (3 Bft) SO 135 1,7 C -0,6 C
01.11.2012 07:26 3,0 C 91 % 992,3 hPa 0,0 l/m 9,7 km/h (2 Bft) SO 135 1,7 C 0,3 C
01.11.2012 07:31 3,0 C 91 % 992,3 hPa 0,0 l/m 7,9 km/h (2 Bft) O-SO 112 1,7 C 0,8 C
01.11.2012 07:36 3,1 C 91 % 992,2 hPa 0,0 l/m 9,4 km/h (2 Bft) SO 135 1,8 C 0,5 C
01.11.2012 07:41 3,1 C 91 % 992,3 hPa 0,0 l/m 7,2 km/h (2 Bft) S-SO 157 1,8 C 1,1 C
01.11.2012 07:46 3,1 C 91 % 992,4 hPa 0,0 l/m 6,8 km/h (2 Bft) O-SO 112 1,8 C 1,3 C
01.11.2012 07:51 3,2 C 91 % 992,1 hPa 0,0 l/m 7,2 km/h (2 Bft) SO 135 1,9 C 1,3 C
01.11.2012 07:56 3,2 C 91 % 992,2 hPa 0,0 l/m 8,3 km/h (2 Bft) SO 135 1,9 C 0,9 C
01.11.2012 08:01 3,3 C 91 % 992,3 hPa 0,0 l/m 3,2 km/h (1 Bft) SO 135 2,0 C 3,3 C
01.11.2012 08:06 3,4 C 91 % 992,3 hPa 0,0 l/m 0,0 km/h (0 Bft) O-SO 112 2,1 C 3,4 C
01.11.2012 08:11 3,5 C 91 % 992,4 hPa 0,0 l/m 7,9 km/h (2 Bft) S-SO 157 2,2 C 1,4 C
01.11.2012 08:16 3,6 C 91 % 992,2 hPa 0,0 l/m 5,0 km/h (1 Bft) SO 135 2,3 C 2,5 C
01.11.2012 08:21 3,7 C 91 % 992,2 hPa 0,0 l/m 6,1 km/h (2 Bft) S 180 2,4 C 2,2 C
01.11.2012 08:26 3,9 C 91 % 992,4 hPa 0,0 l/m 2,5 km/h (1 Bft) S 180 2,6 C 3,9 C
01.11.2012 08:31 3,9 C 91 % 992,2 hPa 0,0 l/m 6,5 km/h (2 Bft) SO 135 2,6 C 2,3 C
01.11.2012 08:36 4,1 C 90 % 992,0 hPa 0,0 l/m 14,8 km/h (3 Bft) SO 135 2,6 C 0,7 C
01.11.2012 08:41 4,2 C 90 % 992,1 hPa 0,0 l/m 6,1 km/h (2 Bft) SO 135 2,7 C 2,8 C
01.11.2012 08:46 4,3 C 90 % 991,9 hPa 0,0 l/m 8,3 km/h (2 Bft) SO 135 2,8 C 2,2 C
01.11.2012 08:51 4,3 C 89 % 991,8 hPa 0,0 l/m 22,0 km/h (4 Bft) SO 135 2,7 C -0,1 C
01.11.2012 08:56 4,3 C 89 % 991,8 hPa 0,0 l/m 10,4 km/h (2 Bft) S-SO 157 2,7 C 1,7 C
01.11.2012 09:01 4,4 C 89 % 991,8 hPa 0,0 l/m 6,5 km/h (2 Bft) S-SO 157 2,7 C 2,9 C
01.11.2012 09:06 4,5 C 89 % 991,8 hPa 0,0 l/m 4,3 km/h (1 Bft) S-SO 157 2,8 C 4,5 C
01.11.2012 09:11 4,5 C 88 % 991,6 hPa 0,0 l/m 5,0 km/h (1 Bft) SO 135 2,7 C 3,5 C
01.11.2012 09:16 4,6 C 88 % 991,6 hPa 0,0 l/m 7,2 km/h (2 Bft) S-SO 157 2,8 C 2,9 C
01.11.2012 09:21 4,7 C 88 % 991,7 hPa 0,0 l/m 6,8 km/h (2 Bft) SO 135 2,9 C 3,1 C
01.11.2012 09:26 4,8 C 88 % 991,8 hPa 0,0 l/m 14,0 km/h (3 Bft) S-SO 157 3,0 C 1,7 C
01.11.2012 09:31 4,9 C 88 % 991,7 hPa 0,0 l/m 7,6 km/h (2 Bft) S 180 3,1 C 3,1 C
01.11.2012 09:36 4,9 C 88 % 991,4 hPa 0,0 l/m 8,6 km/h (2 Bft) S-SO 157 3,1 C 2,9 C
01.11.2012 09:41 5,1 C 88 % 991,4 hPa 0,0 l/m 12,2 km/h (2 Bft) S-SO 157 3,3 C 2,3 C
01.11.2012 09:46 5,3 C 87 % 991,2 hPa 0,0 l/m 15,5 km/h (3 Bft) S-SO 157 3,3 C 2,0 C
01.11.2012 09:51 5,4 C 87 % 991,3 hPa 0,0 l/m 14,0 km/h (3 Bft) SO 135 3,4 C 2,4 C
01.11.2012 09:56 5,5 C 86 % 991,2 hPa 0,0 l/m 3,2 km/h (1 Bft) O-SO 112 3,3 C 5,5 C
01.11.2012 10:01 5,6 C 86 % 991,1 hPa 0,0 l/m 4,7 km/h (1 Bft) O 90 3,4 C 4,9 C
01.11.2012 10:06 5,8 C 86 % 991,1 hPa 0,0 l/m 11,2 km/h (2 Bft) SO 135 3,6 C 3,4 C
01.11.2012 10:11 5,8 C 85 % 991,1 hPa 0,0 l/m 4,7 km/h (1 Bft) S 180 3,5 C 5,1 C
01.11.2012 10:16 5,9 C 85 % 991,1 hPa 0,0 l/m 3,6 km/h (1 Bft) O-SO 112 3,6 C 5,9 C
01.11.2012 10:21 5,9 C 85 % 991,2 hPa 0,0 l/m 2,5 km/h (1 Bft) S-SO 157 3,6 C 5,9 C
01.11.2012 10:26 6,0 C 85 % 991,0 hPa 0,0 l/m 7,9 km/h (2 Bft) SO 135 3,7 C 4,3 C
01.11.2012 10:31 6,1 C 85 % 991,0 hPa 0,0 l/m 11,5 km/h (2 Bft) S-SO 157 3,8 C 3,7 C
01.11.2012 10:36 6,2 C 84 % 990,9 hPa 0,0 l/m 8,3 km/h (2 Bft) S-SO 157 3,7 C 4,5 C
01.11.2012 10:41 6,2 C 84 % 990,8 hPa 0,0 l/m 5,8 km/h (2 Bft) S-SO 157 3,7 C 5,2 C
01.11.2012 10:46 6,3 C 84 % 990,8 hPa 0,0 l/m 8,6 km/h (2 Bft) S-SO 157 3,8 C 4,5 C
01.11.2012 10:51 6,4 C 84 % 990,8 hPa 0,0 l/m 13,0 km/h (3 Bft) SO 135 3,9 C 3,8 C
01.11.2012 10:56 6,5 C 84 % 990,7 hPa 0,0 l/m 9,4 km/h (2 Bft) SO 135 4,0 C 4,6 C
01.11.2012 11:01 6,6 C 84 % 990,6 hPa 0,0 l/m 9,4 km/h (2 Bft) S-SO 157 4,1 C 4,7 C
01.11.2012 11:06 6,8 C 83 % 990,5 hPa 0,0 l/m 5,4 km/h (1 Bft) SO 135 4,1 C 6,0 C
01.11.2012 11:11 6,8 C 83 % 990,5 hPa 0,0 l/m 3,2 km/h (1 Bft) O 90 4,1 C 6,8 C
01.11.2012 11:16 6,9 C 83 % 990,3 hPa 0,0 l/m 7,2 km/h (2 Bft) S-SO 157 4,2 C 5,6 C
01.11.2012 11:21 7,0 C 83 % 990,4 hPa 0,0 l/m 8,3 km/h (2 Bft) O-SO 112 4,3 C 5,4 C
01.11.2012 11:26 7,1 C 83 % 990,4 hPa 0,0 l/m 4,3 km/h (1 Bft) SO 135 4,4 C 7,1 C
01.11.2012 11:31 7,2 C 83 % 990,4 hPa 0,0 l/m 5,0 km/h (1 Bft) S 180 4,5 C 6,6 C
01.11.2012 11:36 7,3 C 82 % 990,3 hPa 0,0 l/m 6,5 km/h (2 Bft) S-SO 157 4,4 C 6,2 C
01.11.2012 11:41 7,2 C 82 % 990,3 hPa 0,0 l/m 2,2 km/h (1 Bft) O-SO 112 4,3 C 7,2 C
01.11.2012 11:46 7,3 C 82 % 990,0 hPa 0,0 l/m 7,2 km/h (2 Bft) S 180 4,4 C 6,0 C
01.11.2012 11:51 7,3 C 82 % 990,1 hPa 0,0 l/m 7,6 km/h (2 Bft) S-SO 157 4,4 C 5,9 C
01.11.2012 11:56 7,4 C 82 % 990,0 hPa 0,0 l/m 6,8 km/h (2 Bft) S-SO 157 4,5 C 6,3 C
01.11.2012 12:01 7,4 C 83 % 989,9 hPa 0,0 l/m 5,0 km/h (1 Bft) S-SO 157 4,7 C 6,8 C
01.11.2012 12:06 7,4 C 83 % 989,9 hPa 0,0 l/m 13,7 km/h (3 Bft) S-SO 157 4,7 C 4,9 C
01.11.2012 12:11 7,3 C 83 % 989,8 hPa 0,0 l/m 8,6 km/h (2 Bft) SO 135 4,6 C 5,7 C
01.11.2012 12:16 7,3 C 83 % 989,6 hPa 0,0 l/m 5,8 km/h (2 Bft) SO 135 4,6 C 6,4 C
01.11.2012 12:21 7,3 C 84 % 989,6 hPa 0,0 l/m 12,6 km/h (3 Bft) S-SO 157 4,8 C 4,9 C
01.11.2012 12:26 7,3 C 84 % 989,6 hPa 0,0 l/m 7,2 km/h (2 Bft) S-SO 157 4,8 C 6,0 C
01.11.2012 12:31 7,3 C 84 % 989,6 hPa 0,0 l/m 5,0 km/h (1 Bft) S-SO 157 4,8 C 6,7 C
01.11.2012 12:36 7,2 C 84 % 989,5 hPa 0,0 l/m 10,4 km/h (2 Bft) SO 135 4,7 C 5,2 C
01.11.2012 12:41 7,3 C 84 % 989,4 hPa 0,0 l/m 4,3 km/h (1 Bft) O-SO 112 4,8 C 7,3 C
01.11.2012 12:46 7,3 C 84 % 989,4 hPa 0,0 l/m 4,0 km/h (1 Bft) O-SO 112 4,8 C 7,3 C
01.11.2012 12:51 7,3 C 84 % 989,2 hPa 0,0 l/m 8,3 km/h (2 Bft) SO 135 4,8 C 5,8 C
01.11.2012 12:56 7,3 C 85 % 989,0 hPa 0,0 l/m 5,0 km/h (1 Bft) S-SO 157 4,9 C 6,7 C
01.11.2012 13:01 7,3 C 85 % 989,2 hPa 0,0 l/m 3,6 km/h (1 Bft) SO 135 4,9 C 7,3 C
01.11.2012 13:06 7,3 C 85 % 989,1 hPa 0,0 l/m 13,0 km/h (3 Bft) SO 135 4,9 C 4,9 C
01.11.2012 13:11 7,3 C 85 % 989,2 hPa 0,0 l/m 6,8 km/h (2 Bft) S-SO 157 4,9 C 6,1 C
01.11.2012 13:16 7,3 C 85 % 989,2 hPa 0,0 l/m 14,4 km/h (3 Bft) SO 135 4,9 C 4,7 C
01.11.2012 13:21 7,3 C 85 % 989,1 hPa 0,0 l/m 14,8 km/h (3 Bft) S 180 4,9 C 4,6 C
01.11.2012 13:26 7,3 C 85 % 989,0 hPa 0,0 l/m 12,2 km/h (2 Bft) S-SO 157 4,9 C 5,0 C
01.11.2012 13:31 7,3 C 85 % 988,8 hPa 0,0 l/m 19,1 km/h (3 Bft) S-SO 157 4,9 C 4,1 C
01.11.2012 13:36 7,2 C 85 % 988,6 hPa 0,0 l/m 17,3 km/h (3 Bft) S-SO 157 4,9 C 4,2 C
01.11.2012 13:41 7,2 C 86 % 988,8 hPa 0,0 l/m 0,0 km/h (0 Bft) SO 135 5,0 C 7,2 C
01.11.2012 13:46 7,3 C 86 % 988,6 hPa 0,0 l/m 9,4 km/h (2 Bft) S-SO 157 5,1 C 5,5 C
01.11.2012 13:51 7,3 C 86 % 988,6 hPa 0,0 l/m 6,5 km/h (2 Bft) S-SO 157 5,1 C 6,2 C
01.11.2012 13:56 7,3 C 87 % 988,5 hPa 0,0 l/m 14,8 km/h (3 Bft) SO 135 5,3 C 4,6 C
01.11.2012 14:01 7,2 C 87 % 988,5 hPa 0,0 l/m 6,8 km/h (2 Bft) S-SO 157 5,2 C 6,0 C
01.11.2012 14:06 7,3 C 87 % 988,7 hPa 0,0 l/m 4,0 km/h (1 Bft) SO 135 5,3 C 7,3 C
01.11.2012 14:11 7,2 C 87 % 988,7 hPa 0,0 l/m 4,0 km/h (1 Bft) SO 135 5,2 C 7,2 C
01.11.2012 14:16 7,3 C 87 % 988,6 hPa 0,0 l/m 4,0 km/h (1 Bft) SO 135 5,3 C 7,3 C
01.11.2012 14:21 7,3 C 87 % 988,6 hPa 0,0 l/m 5,8 km/h (2 Bft) S-SO 157 5,3 C 6,4 C
01.11.2012 14:26 7,4 C 87 % 988,6 hPa 0,0 l/m 8,6 km/h (2 Bft) S 180 5,4 C 5,8 C
01.11.2012 14:31 7,4 C 87 % 988,4 hPa 0,0 l/m 6,1 km/h (2 Bft) SO 135 5,4 C 6,5 C
01.11.2012 14:36 7,5 C 87 % 988,4 hPa 0,0 l/m 4,0 km/h (1 Bft) S 180 5,5 C 7,5 C
01.11.2012 14:41 7,6 C 87 % 988,4 hPa 0,0 l/m 5,0 km/h (1 Bft) S-SO 157 5,6 C 7,0 C
01.11.2012 14:46 7,6 C 87 % 988,3 hPa 0,0 l/m 9,0 km/h (2 Bft) O 90 5,6 C 6,0 C
01.11.2012 14:51 7,5 C 87 % 988,4 hPa 0,0 l/m 4,7 km/h (1 Bft) SO 135 5,5 C 7,0 C
01.11.2012 14:56 7,4 C 87 % 988,2 hPa 0,0 l/m 12,6 km/h (3 Bft) S-SO 157 5,4 C 5,1 C
01.11.2012 15:01 7,4 C 87 % 988,2 hPa 0,0 l/m 11,5 km/h (2 Bft) S 180 5,4 C 5,2 C
01.11.2012 15:06 7,4 C 87 % 988,2 hPa 0,0 l/m 6,5 km/h (2 Bft) SO 135 5,4 C 6,3 C
01.11.2012 15:11 7,4 C 88 % 988,1 hPa 0,0 l/m 6,5 km/h (2 Bft) S-SO 157 5,5 C 6,3 C
01.11.2012 15:16 7,4 C 88 % 988,2 hPa 0,0 l/m 14,8 km/h (3 Bft) SO 135 5,5 C 4,7 C
01.11.2012 15:21 7,4 C 88 % 988,4 hPa 0,0 l/m 8,3 km/h (2 Bft) S-SO 157 5,5 C 5,9 C
01.11.2012 15:26 7,4 C 88 % 988,3 hPa 0,0 l/m 9,4 km/h (2 Bft) S-SO 157 5,5 C 5,6 C
01.11.2012 15:31 7,3 C 88 % 988,5 hPa 0,0 l/m 4,0 km/h (1 Bft) S-SO 157 5,4 C 7,3 C
01.11.2012 15:36 7,3 C 88 % 988,5 hPa 0,0 l/m 6,5 km/h (2 Bft) SO 135 5,4 C 6,2 C
01.11.2012 15:41 7,2 C 88 % 988,6 hPa 0,0 l/m 4,0 km/h (1 Bft) S-SO 157 5,3 C 7,2 C
01.11.2012 15:46 7,2 C 88 % 988,5 hPa 0,0 l/m 6,5 km/h (2 Bft) S-SO 157 5,3 C 6,1 C
01.11.2012 15:51 7,2 C 88 % 988,4 hPa 0,0 l/m 12,6 km/h (3 Bft) SO 135 5,3 C 4,8 C
01.11.2012 15:56 7,1 C 88 % 988,3 hPa 0,0 l/m 7,2 km/h (2 Bft) S-SO 157 5,2 C 5,8 C
01.11.2012 16:01 7,1 C 88 % 988,3 hPa 0,0 l/m 8,3 km/h (2 Bft) S-SO 157 5,2 C 5,5 C
01.11.2012 16:06 7,0 C 89 % 988,3 hPa 0,0 l/m 4,7 km/h (1 Bft) SO 135 5,3 C 6,5 C
01.11.2012 16:11 6,9 C 89 % 988,2 hPa 0,0 l/m 4,0 km/h (1 Bft) O-SO 112 5,2 C 6,9 C
01.11.2012 16:16 6,9 C 89 % 988,2 hPa 0,0 l/m 4,7 km/h (1 Bft) S-SO 157 5,2 C 6,3 C
01.11.2012 16:21 6,9 C 89 % 988,4 hPa 0,0 l/m 6,5 km/h (2 Bft) S-SO 157 5,2 C 5,8 C
01.11.2012 16:26 6,9 C 89 % 988,4 hPa 0,0 l/m 9,0 km/h (2 Bft) S-SO 157 5,2 C 5,1 C
01.11.2012 16:31 6,9 C 89 % 988,3 hPa 0,0 l/m 5,4 km/h (1 Bft) S-SO 157 5,2 C 6,1 C
01.11.2012 16:36 6,9 C 89 % 988,2 hPa 0,0 l/m 6,1 km/h (2 Bft) S-SO 157 5,2 C 5,9 C
01.11.2012 16:41 6,9 C 89 % 988,3 hPa 0,0 l/m 7,6 km/h (2 Bft) SO 135 5,2 C 5,5 C
01.11.2012 16:46 6,8 C 90 % 988,3 hPa 0,0 l/m 6,5 km/h (2 Bft) S 180 5,3 C 5,6 C
01.11.2012 16:51 6,8 C 90 % 988,4 hPa 0,0 l/m 4,7 km/h (1 Bft) SO 135 5,3 C 6,2 C
01.11.2012 16:56 6,8 C 90 % 988,2 hPa 0,0 l/m 7,9 km/h (2 Bft) SO 135 5,3 C 5,3 C
01.11.2012 17:01 6,7 C 90 % 988,3 hPa 0,0 l/m 6,5 km/h (2 Bft) SO 135 5,2 C 5,5 C
01.11.2012 17:06 6,7 C 90 % 988,3 hPa 0,0 l/m 7,6 km/h (2 Bft) SO 135 5,2 C 5,2 C
01.11.2012 17:11 6,6 C 90 % 988,2 hPa 0,0 l/m 2,9 km/h (1 Bft) SO 135 5,1 C 6,6 C
01.11.2012 17:16 6,6 C 90 % 988,1 hPa 0,0 l/m 3,2 km/h (1 Bft) S 180 5,1 C 6,6 C
01.11.2012 17:21 6,6 C 90 % 988,2 hPa 0,0 l/m 6,1 km/h (2 Bft) SO 135 5,1 C 5,5 C
01.11.2012 17:26 6,6 C 90 % 988,3 hPa 0,0 l/m 5,8 km/h (2 Bft) S-SO 157 5,1 C 5,6 C
01.11.2012 17:31 6,6 C 90 % 988,2 hPa 0,0 l/m 5,4 km/h (1 Bft) SO 135 5,1 C 5,8 C
01.11.2012 17:36 6,6 C 90 % 988,1 hPa 0,0 l/m 6,8 km/h (2 Bft) S-SO 157 5,1 C 5,3 C
01.11.2012 17:41 6,7 C 90 % 988,0 hPa 0,0 l/m 1,8 km/h (1 Bft) S-SO 157 5,2 C 6,7 C
01.11.2012 17:46 6,7 C 90 % 988,0 hPa 0,0 l/m 9,7 km/h (2 Bft) S-SO 157 5,2 C 4,8 C
01.11.2012 17:51 6,8 C 90 % 988,1 hPa 0,0 l/m 2,9 km/h (1 Bft) SO 135 5,3 C 6,8 C
01.11.2012 17:56 6,8 C 90 % 988,0 hPa 0,0 l/m 14,4 km/h (3 Bft) SO 135 5,3 C 4,1 C
01.11.2012 18:01 6,8 C 90 % 988,0 hPa 0,0 l/m 6,1 km/h (2 Bft) SO 135 5,3 C 5,8 C
01.11.2012 18:06 6,8 C 90 % 988,0 hPa 0,0 l/m 9,4 km/h (2 Bft) S-SO 157 5,3 C 4,9 C
01.11.2012 18:11 6,9 C 90 % 988,1 hPa 0,0 l/m 8,3 km/h (2 Bft) S-SO 157 5,4 C 5,3 C
01.11.2012 18:16 6,9 C 90 % 988,0 hPa 0,0 l/m 10,1 km/h (2 Bft) S-SO 157 5,4 C 4,9 C
01.11.2012 18:21 6,9 C 90 % 988,0 hPa 0,0 l/m 9,0 km/h (2 Bft) S-SO 157 5,4 C 5,1 C
01.11.2012 18:26 6,9 C 90 % 988,0 hPa 0,0 l/m 16,9 km/h (3 Bft) S-SO 157 5,4 C 3,8 C
01.11.2012 18:31 6,9 C 90 % 988,0 hPa 0,0 l/m 20,9 km/h (4 Bft) S-SO 157 5,4 C 3,4 C
01.11.2012 18:36 7,0 C 90 % 988,0 hPa 0,0 l/m 14,8 km/h (3 Bft) S-SO 157 5,5 C 4,2 C
01.11.2012 18:41 7,1 C 90 % 988,1 hPa 0,0 l/m 10,8 km/h (2 Bft) S 180 5,6 C 5,0 C
01.11.2012 18:46 7,1 C 90 % 988,0 hPa 0,0 l/m 11,2 km/h (2 Bft) S 180 5,6 C 4,9 C
01.11.2012 18:51 7,1 C 90 % 988,0 hPa 0,0 l/m 11,2 km/h (2 Bft) SO 135 5,6 C 4,9 C
01.11.2012 18:56 7,1 C 90 % 988,0 hPa 0,0 l/m 17,6 km/h (3 Bft) SW 225 5,6 C 4,0 C
01.11.2012 19:01 7,2 C 90 % 988,1 hPa 0,0 l/m 4,3 km/h (1 Bft) S-SW 202 5,7 C 7,2 C
01.11.2012 19:06 7,2 C 90 % 988,2 hPa 0,0 l/m 9,7 km/h (2 Bft) S-SO 157 5,7 C 5,3 C
01.11.2012 19:11 7,2 C 90 % 988,2 hPa 0,0 l/m 5,8 km/h (2 Bft) SO 135 5,7 C 6,3 C
01.11.2012 19:16 7,2 C 90 % 988,2 hPa 0,0 l/m 4,0 km/h (1 Bft) S-SW 202 5,7 C 7,2 C
01.11.2012 19:21 7,2 C 90 % 988,2 hPa 0,0 l/m 8,3 km/h (2 Bft) S-SO 157 5,7 C 5,6 C
01.11.2012 19:26 7,2 C 90 % 988,2 hPa 0,0 l/m 6,8 km/h (2 Bft) S-SW 202 5,7 C 6,0 C
01.11.2012 19:31 7,3 C 90 % 988,2 hPa 0,0 l/m 4,0 km/h (1 Bft) S-SW 202 5,8 C 7,3 C
01.11.2012 19:36 7,3 C 89 % 988,2 hPa 0,0 l/m 9,4 km/h (2 Bft) S-SO 157 5,6 C 5,5 C
01.11.2012 19:41 7,3 C 89 % 988,3 hPa 0,0 l/m 5,0 km/h (1 Bft) W-SW 247 5,6 C 6,7 C
01.11.2012 19:46 7,3 C 89 % 988,3 hPa 0,0 l/m 10,8 km/h (2 Bft) SW 225 5,6 C 5,3 C
01.11.2012 19:51 7,3 C 89 % 988,3 hPa 0,0 l/m 4,0 km/h (1 Bft) S-SO 157 5,6 C 7,3 C
01.11.2012 19:56 7,3 C 89 % 988,3 hPa 0,0 l/m 14,8 km/h (3 Bft) S-SW 202 5,6 C 4,6 C
01.11.2012 20:01 7,4 C 89 % 988,5 hPa 0,0 l/m 10,4 km/h (2 Bft) S-SW 202 5,7 C 5,4 C
01.11.2012 20:06 7,4 C 89 % 988,4 hPa 0,0 l/m 9,7 km/h (2 Bft) S-SW 202 5,7 C 5,6 C
01.11.2012 20:11 7,4 C 89 % 988,4 hPa 0,0 l/m 8,6 km/h (2 Bft) SW 225 5,7 C 5,8 C
01.11.2012 20:16 7,5 C 89 % 988,4 hPa 0,0 l/m 4,7 km/h (1 Bft) W-SW 247 5,8 C 7,0 C
01.11.2012 20:21 7,5 C 89 % 988,6 hPa 0,0 l/m 13,3 km/h (3 Bft) S 180 5,8 C 5,1 C
01.11.2012 20:26 7,6 C 89 % 988,7 hPa 0,0 l/m 16,6 km/h (3 Bft) S-SW 202 5,9 C 4,7 C
01.11.2012 20:31 7,6 C 89 % 988,8 hPa 0,0 l/m 19,4 km/h (3 Bft) S 180 5,9 C 4,4 C
01.11.2012 20:36 7,6 C 89 % 988,8 hPa 0,5 l/m 9,4 km/h (2 Bft) S-SW 202 5,9 C 5,9 C
01.11.2012 20:41 7,6 C 89 % 988,8 hPa 0,0 l/m 12,2 km/h (2 Bft) S-SO 157 5,9 C 5,4 C
01.11.2012 20:46 7,6 C 89 % 988,7 hPa 0,0 l/m 11,9 km/h (2 Bft) S-SO 157 5,9 C 5,4 C
01.11.2012 20:51 7,6 C 90 % 988,7 hPa 0,0 l/m 7,2 km/h (2 Bft) S-SW 202 6,1 C 6,4 C
01.11.2012 20:56 7,6 C 90 % 988,7 hPa 0,0 l/m 14,4 km/h (3 Bft) S-SW 202 6,1 C 5,0 C
01.11.2012 21:01 7,6 C 90 % 988,7 hPa 0,0 l/m 7,2 km/h (2 Bft) S-SW 202 6,1 C 6,4 C
01.11.2012 21:06 7,6 C 90 % 988,8 hPa 0,0 l/m 11,2 km/h (2 Bft) S-SW 202 6,1 C 5,5 C
01.11.2012 21:11 7,6 C 90 % 988,8 hPa 0,0 l/m 10,1 km/h (2 Bft) S-SW 202 6,1 C 5,7 C
01.11.2012 21:16 7,6 C 90 % 988,8 hPa 0,0 l/m 11,5 km/h (2 Bft) S 180 6,1 C 5,5 C
01.11.2012 21:21 7,5 C 90 % 988,9 hPa 0,0 l/m 14,8 km/h (3 Bft) S 180 6,0 C 4,9 C
01.11.2012 21:26 7,5 C 89 % 988,9 hPa 0,0 l/m 6,5 km/h (2 Bft) S-SO 157 5,8 C 6,5 C
01.11.2012 21:31 7,4 C 89 % 989,0 hPa 0,0 l/m 14,4 km/h (3 Bft) S-SO 157 5,7 C 4,8 C
01.11.2012 21:36 7,4 C 89 % 988,8 hPa 0,0 l/m 7,6 km/h (2 Bft) S 180 5,7 C 6,0 C
01.11.2012 21:41 7,3 C 89 % 988,9 hPa 0,0 l/m 10,8 km/h (2 Bft) S-SW 202 5,6 C 5,3 C
01.11.2012 21:46 7,3 C 89 % 989,0 hPa 0,0 l/m 10,1 km/h (2 Bft) S-SW 202 5,6 C 5,4 C
01.11.2012 21:51 7,2 C 89 % 989,0 hPa 0,0 l/m 4,3 km/h (1 Bft) S 180 5,5 C 7,2 C
01.11.2012 21:56 7,2 C 89 % 989,1 hPa 0,0 l/m 17,6 km/h (3 Bft) S-SO 157 5,5 C 4,1 C
01.11.2012 22:01 7,2 C 89 % 989,2 hPa 0,0 l/m 9,4 km/h (2 Bft) SW 225 5,5 C 5,4 C
01.11.2012 22:06 7,2 C 89 % 989,2 hPa 0,0 l/m 9,4 km/h (2 Bft) S-SO 157 5,5 C 5,4 C
01.11.2012 22:11 7,2 C 89 % 989,1 hPa 0,0 l/m 9,7 km/h (2 Bft) S-SW 202 5,5 C 5,3 C
01.11.2012 22:16 7,2 C 89 % 989,2 hPa 0,0 l/m 9,7 km/h (2 Bft) S-SW 202 5,5 C 5,3 C
01.11.2012 22:21 7,2 C 89 % 989,3 hPa 0,0 l/m 7,2 km/h (2 Bft) SW 225 5,5 C 5,9 C
01.11.2012 22:26 7,1 C 88 % 989,5 hPa 0,0 l/m 7,9 km/h (2 Bft) S 180 5,2 C 5,6 C
01.11.2012 22:31 7,0 C 88 % 989,3 hPa 0,0 l/m 6,8 km/h (2 Bft) SO 135 5,2 C 5,8 C
01.11.2012 22:36 6,9 C 89 % 989,3 hPa 0,0 l/m 6,5 km/h (2 Bft) S 180 5,2 C 5,8 C
01.11.2012 22:41 6,9 C 89 % 989,3 hPa 0,0 l/m 7,6 km/h (2 Bft) S 180 5,2 C 5,5 C
01.11.2012 22:46 6,8 C 89 % 989,3 hPa 0,0 l/m 3,6 km/h (1 Bft) S-SW 202 5,1 C 6,8 C
01.11.2012 22:51 6,7 C 88 % 989,5 hPa 0,0 l/m 10,4 km/h (2 Bft) S-SW 202 4,9 C 4,6 C
01.11.2012 22:56 6,6 C 89 % 989,7 hPa 0,0 l/m 4,0 km/h (1 Bft) S 180 4,9 C 6,6 C
01.11.2012 23:01 6,5 C 89 % 989,8 hPa 0,0 l/m 19,1 km/h (3 Bft) S 180 4,8 C 3,1 C
01.11.2012 23:06 6,4 C 89 % 989,6 hPa 0,0 l/m 9,7 km/h (2 Bft) S-SW 202 4,7 C 4,4 C
01.11.2012 23:11 6,4 C 89 % 989,8 hPa 0,0 l/m 5,8 km/h (2 Bft) S-SW 202 4,7 C 5,4 C
01.11.2012 23:16 6,4 C 89 % 989,9 hPa 0,0 l/m 9,7 km/h (2 Bft) S 180 4,7 C 4,4 C
01.11.2012 23:21 6,4 C 89 % 989,9 hPa 0,0 l/m 10,4 km/h (2 Bft) W-SW 247 4,7 C 4,3 C
01.11.2012 23:26 6,4 C 89 % 990,1 hPa 0,0 l/m 12,6 km/h (3 Bft) W-SW 247 4,7 C 3,8 C
01.11.2012 23:31 6,4 C 89 % 990,0 hPa 0,0 l/m 10,1 km/h (2 Bft) S-SO 157 4,7 C 4,3 C
01.11.2012 23:36 6,6 C 90 % 990,1 hPa 0,0 l/m 13,7 km/h (3 Bft) S-SW 202 5,1 C 3,9 C
01.11.2012 23:41 6,8 C 90 % 990,3 hPa 0,0 l/m 9,4 km/h (2 Bft) S 180 5,3 C 4,9 C
01.11.2012 23:46 6,8 C 90 % 990,6 hPa 0,0 l/m 13,3 km/h (3 Bft) S-SW 202 5,3 C 4,2 C
01.11.2012 23:51 6,9 C 90 % 990,7 hPa 0,0 l/m 13,7 km/h (3 Bft) SW 225 5,4 C 4,3 C
01.11.2012 23:56 6,9 C 89 % 990,8 hPa 0,0 l/m 12,2 km/h (2 Bft) W-SW 247 5,2 C 4,5 C
_ Min-Zeit 06:01 11:36 17:41 - 08:06 - - 06:01 04:01
Minimum _ 2,7 C 82 % 988,0 hPa - 0,0 km/h (0 Bft) - - 1,4 C -1,0 C
_ Max-Zeit 14:41 00:01 00:01 20:36 08:51 - - 20:51 14:36
Maximum _ 7,6 C 91 % 999,0 hPa 0,5 l/m 22,0 km/h
SO (4 Bft)
- - 6,1 C 7,5 C
Durchschnitt _ 5,5 C 89 % 991,4 hPa #0,5 l/m 8,3 km/h (2 Bft) SO - 3,8 C 3,9 C
(c) by David Heller